Time;durP1;ratioP1;P1;durP2;ratioP2;P2;SDS_P1;SDS_P2;PMS_P1;PMS_P2;Temp;Humidity;BMP_temperature;BMP_pressure;BME280_temperature;BME280_humidity;BME280_pressure;Samples;Min_cycle;Max_cycle;Signal;HPM_P1;HPM_P2
2023/07/04 00:01:48;;;;;;;11.25;2.60;;;16.70;99.90;;;-144.05;47.87;56876.44;5035097;28;20028;-84
2023/07/04 00:04:21;;;;;;;10.02;2.75;;;16.70;99.90;;;-144.05;48.32;56882.81;5034974;28;20029;-83
2023/07/04 00:06:47;;;;;;;6.40;2.65;;;16.70;99.90;;;-144.05;48.28;56870.06;5034644;28;20505;-85
2023/07/04 00:09:15;;;;;;;11.63;2.65;;;16.70;99.90;;;-144.05;48.48;56874.31;5034461;28;20037;-85
2023/07/04 00:11:41;;;;;;;11.45;2.83;;;16.70;99.90;;;-144.05;48.16;56859.47;5050417;28;20104;-83
2023/07/04 00:14:07;;;;;;;12.27;3.13;;;16.70;99.90;;;-144.05;48.37;56857.34;5049183;28;20044;-85
2023/07/04 00:16:33;;;;;;;10.73;2.67;;;16.60;99.90;;;-144.05;48.71;56859.47;5035234;28;20485;-85
2023/07/04 00:19:03;;;;;;;9.63;2.80;;;16.60;99.90;;;-144.05;49.02;56844.59;5034771;28;20119;-85
2023/07/04 00:21:31;;;;;;;6.97;2.50;;;16.60;99.90;;;-144.05;48.99;56859.47;5035410;28;20099;-84
2023/07/04 00:23:56;;;;;;;10.30;2.53;;;16.50;99.90;;;-144.05;49.28;56853.09;5034696;28;20025;-84
2023/07/04 00:26:26;;;;;;;8.10;2.70;;;16.50;99.90;;;-144.05;49.43;56889.19;5035288;28;20024;-85
2023/07/04 00:28:53;;;;;;;11.27;2.65;;;16.40;99.90;;;-144.05;49.95;56863.69;5034511;28;20029;-85
2023/07/04 00:31:23;;;;;;;15.00;3.20;;;16.40;99.90;;;-144.05;49.82;56863.69;5035024;28;20033;-86
2023/07/04 00:33:50;;;;;;;9.82;2.80;;;16.40;99.90;;;-144.05;49.95;56876.44;5041227;28;20040;-85
2023/07/04 00:36:19;;;;;;;8.18;2.45;;;16.40;99.90;;;-144.05;50.10;56904.06;5043182;28;20039;-86
2023/07/04 00:38:56;;;;;;;10.55;2.60;;;16.40;99.90;;;-144.05;50.21;56853.09;5038834;28;20029;-85
2023/07/04 00:41:27;;;;;;;8.77;2.72;;;16.40;99.90;;;-144.05;50.27;56874.31;5051680;28;20036;-84
2023/07/04 00:44:14;;;;;;;12.77;2.75;;;16.40;99.90;;;-144.05;50.07;56865.81;5045558;28;20025;-85
2023/07/04 00:47:04;;;;;;;9.98;2.97;;;16.40;99.90;;;-144.05;50.26;56850.97;5051411;28;20044;-84
2023/07/04 00:49:49;;;;;;;10.02;3.10;;;16.40;99.90;;;-144.05;50.31;56870.06;5049474;28;20049;-85
2023/07/04 00:52:33;;;;;;;10.60;3.15;;;16.40;99.90;;;-144.05;50.70;56855.22;5035191;28;20358;-85
2023/07/04 00:55:07;;;;;;;9.52;2.88;;;16.30;99.90;;;-144.05;50.82;56870.06;5034579;28;20037;-85
2023/07/04 00:57:34;;;;;;;14.17;3.40;;;16.30;99.90;;;-144.05;51.11;56870.06;5035009;28;20396;-84
2023/07/04 01:00:16;;;;;;;9.55;2.38;;;16.30;99.90;;;-144.05;51.28;56865.81;5035082;28;20056;-85
2023/07/04 01:02:45;;;;;;;10.15;2.63;;;16.30;99.90;;;-144.05;51.52;56865.81;5034069;28;20087;-84
2023/07/04 01:05:23;;;;;;;11.18;2.53;;;16.20;99.90;;;-144.05;51.51;56859.47;5033867;28;20051;-84
2023/07/04 01:08:06;;;;;;;10.23;3.17;;;16.30;99.90;;;-144.05;51.66;56872.19;5034177;28;20025;-84
2023/07/04 01:10:47;;;;;;;14.07;2.92;;;16.20;99.90;;;-144.05;51.71;56853.09;5034439;28;20108;-85
2023/07/04 01:13:39;;;;;;;14.45;3.63;;;16.20;99.90;;;-144.05;51.80;56872.19;5034222;28;20481;-85
2023/07/04 01:16:15;;;;;;;7.20;2.47;;;16.20;99.90;;;-144.05;52.24;56876.44;5034364;28;20029;-83
2023/07/04 01:18:47;;;;;;;9.98;2.90;;;16.10;99.90;;;-144.05;52.77;56836.09;5035592;28;20021;-85
2023/07/04 01:21:20;;;;;;;8.60;2.28;;;16.10;99.90;;;-144.05;53.13;56882.81;5038388;28;20099;-85
2023/07/04 01:24:19;;;;;;;7.65;2.88;;;15.90;99.90;;;-144.05;53.66;56887.06;5038765;28;20029;-86
2023/07/04 01:26:49;;;;;;;9.98;2.92;;;15.90;99.90;;;-144.05;53.47;56855.22;5038237;28;20021;-86
2023/07/04 01:29:18;;;;;;;19.40;3.20;;;15.80;99.90;;;-144.05;53.67;56859.47;5038128;28;20056;-86
2023/07/04 01:31:46;;;;;;;8.70;2.33;;;15.70;99.90;;;-144.05;53.99;56870.06;5038176;28;20049;-86
2023/07/04 01:34:17;;;;;;;9.05;2.78;;;15.60;99.90;;;-144.05;54.51;56846.72;5037670;28;20033;-84
2023/07/04 01:36:44;;;;;;;10.73;3.08;;;15.50;99.90;;;-144.05;54.42;56846.72;5037850;28;20551;-87
2023/07/04 01:39:14;;;;;;;11.82;3.08;;;15.60;99.90;;;-144.05;55.14;56863.69;5037914;28;20033;-84
2023/07/04 01:41:45;;;;;;;14.20;3.30;;;15.50;99.90;;;-144.05;55.31;56880.69;5038064;28;20447;-84
2023/07/04 01:44:16;;;;;;;15.55;3.45;;;15.50;99.90;;;-144.05;55.41;56882.81;5037835;28;20035;-85
2023/07/04 01:46:42;;;;;;;12.50;3.10;;;15.50;99.90;;;-144.05;55.45;56861.56;5037672;28;20024;-83
2023/07/04 01:49:09;;;;;;;10.95;3.58;;;15.40;99.90;;;-144.05;55.62;56861.56;5037586;28;20029;-87
2023/07/04 01:51:41;;;;;;;14.63;3.15;;;15.40;99.90;;;-144.05;55.89;56846.72;5037849;28;20481;-86
2023/07/04 01:54:10;;;;;;;11.50;2.72;;;15.40;99.90;;;-144.05;55.86;56844.59;5038052;28;20044;-85
2023/07/04 01:56:38;;;;;;;12.07;2.83;;;15.40;99.90;;;-144.05;56.20;56861.56;5038365;28;20032;-86
2023/07/04 01:59:07;;;;;;;9.60;3.30;;;15.30;99.90;;;-144.05;56.63;56867.94;5055709;28;20033;-86
2023/07/04 02:01:33;;;;;;;14.27;3.50;;;15.30;99.90;;;-144.05;56.59;56876.44;5037399;28;20031;-87
2023/07/04 02:03:59;;;;;;;8.93;2.58;;;15.40;99.90;;;-144.05;56.44;56880.69;5036844;28;20033;-84
2023/07/04 02:06:24;;;;;;;9.25;3.45;;;15.30;99.90;;;-144.05;56.19;56853.09;5037760;28;20033;-87
2023/07/04 02:08:53;;;;;;;8.60;2.50;;;15.30;99.90;;;-144.05;56.99;56872.19;5057981;28;20078;-79
2023/07/04 02:11:19;;;;;;;12.00;2.92;;;15.30;99.90;;;-144.05;57.06;56867.94;5045296;28;20037;-85
2023/07/04 02:13:45;;;;;;;13.85;3.08;;;15.20;99.90;;;-144.05;57.70;56893.44;5037051;28;20029;-87
2023/07/04 02:16:11;;;;;;;10.38;2.92;;;15.20;99.90;;;-144.05;57.83;56859.47;5037046;28;20079;-86
2023/07/04 02:18:37;;;;;;;13.40;3.47;;;15.10;99.90;;;-144.05;57.84;56870.06;5037116;28;20029;-87
2023/07/04 02:21:03;;;;;;;11.85;3.10;;;15.10;99.90;;;-144.05;58.17;56846.72;5037200;28;20087;-87
2023/07/04 02:23:29;;;;;;;10.00;3.05;;;15.10;99.90;;;-144.05;58.13;56859.47;5037026;28;20021;-85
2023/07/04 02:25:55;;;;;;;10.80;3.40;;;15.10;99.90;;;-144.05;58.53;56861.56;5037171;28;20036;-85
2023/07/04 02:28:21;;;;;;;11.10;2.42;;;15.00;99.90;;;-144.05;58.33;56874.31;5037218;28;20159;-87
2023/07/04 02:30:59;;;;;;;10.73;3.25;;;15.00;99.90;;;-144.05;58.55;56876.44;5039003;28;20032;-89
2023/07/04 02:33:26;;;;;;;10.52;3.25;;;14.90;99.90;;;-144.05;58.99;56865.81;5037628;28;20106;-86
2023/07/04 02:35:52;;;;;;;15.68;3.58;;;14.90;99.90;;;-144.05;59.65;56872.19;5036224;28;20029;-85
2023/07/04 02:38:19;;;;;;;11.60;3.25;;;14.90;99.90;;;-144.05;60.45;56846.72;5035904;28;20197;-85
2023/07/04 02:40:51;;;;;;;8.68;2.72;;;14.80;99.90;;;-144.05;60.27;56855.22;5036168;28;20078;-87
2023/07/04 02:43:18;;;;;;;13.20;3.70;;;14.70;99.90;;;-144.05;60.76;56874.31;5053763;28;20017;-85
2023/07/04 02:45:45;;;;;;;11.00;3.25;;;14.80;99.90;;;-144.05;60.42;56904.06;5036197;28;20543;-87
2023/07/04 02:48:11;;;;;;;10.43;3.33;;;14.70;99.90;;;-144.05;60.36;56857.34;5054057;28;20557;-83
2023/07/04 02:50:37;;;;;;;14.95;3.58;;;14.70;99.90;;;-144.05;61.32;56857.34;5036903;28;20404;-83
2023/07/04 02:53:03;;;;;;;15.13;3.92;;;14.70;99.90;;;-144.05;61.43;56861.56;5036061;28;20086;-85
2023/07/04 02:55:30;;;;;;;15.65;3.22;;;14.60;99.90;;;-144.05;61.57;56861.56;5053720;28;20037;-84
2023/07/04 02:57:56;;;;;;;15.50;3.63;;;14.60;99.90;;;-144.05;61.57;56859.47;5035875;28;20025;-84
2023/07/04 03:00:22;;;;;;;13.18;3.30;;;14.60;99.90;;;-144.05;61.65;56850.97;5053866;28;20400;-85
2023/07/04 03:02:48;;;;;;;13.57;3.42;;;14.60;99.90;;;-144.05;62.20;56853.09;5053682;28;20064;-85
2023/07/04 03:05:14;;;;;;;15.48;3.08;;;14.50;99.90;;;-144.05;62.13;56872.19;5035767;28;20048;-85
2023/07/04 03:07:40;;;;;;;10.55;3.15;;;14.60;99.90;;;-144.05;62.44;56867.94;5035706;28;20477;-84
2023/07/04 03:10:06;;;;;;;16.33;3.17;;;14.60;99.90;;;-144.05;62.78;56857.34;5053269;28;20052;-84
2023/07/04 03:12:32;;;;;;;10.88;3.70;;;14.60;99.90;;;-144.05;63.40;56857.34;5040234;28;20033;-88
2023/07/04 03:14:58;;;;;;;9.95;2.97;;;14.60;99.90;;;-144.05;63.09;56850.97;5037844;28;20033;-85
2023/07/04 03:17:24;;;;;;;12.23;3.00;;;14.60;99.90;;;-144.05;63.01;56857.34;5035828;28;20033;-84
2023/07/04 03:19:50;;;;;;;15.73;3.72;;;14.60;99.90;;;-144.05;62.76;56865.81;5035397;28;20423;-84
2023/07/04 03:22:16;;;;;;;14.13;3.53;;;14.60;99.90;;;-144.05;62.77;56853.09;5053607;28;20545;-86
2023/07/04 03:24:42;;;;;;;16.67;3.15;;;14.70;99.90;;;-144.05;63.16;56859.47;5035303;28;20064;-85
2023/07/04 03:27:09;;;;;;;12.85;3.30;;;14.60;99.90;;;-144.05;63.22;56846.72;5035126;28;20060;-85
2023/07/04 03:29:35;;;;;;;15.13;3.40;;;14.70;99.90;;;-144.05;63.40;56865.81;5035708;28;20028;-86
2023/07/04 03:32:00;;;;;;;11.98;3.20;;;14.70;99.90;;;-144.05;63.43;56863.69;5035345;28;20025;-85
2023/07/04 03:34:26;;;;;;;13.30;4.00;;;14.70;99.90;;;-144.05;63.23;56872.19;5035365;28;20029;-85
2023/07/04 03:36:52;;;;;;;13.55;3.40;;;14.70;99.90;;;-144.05;63.76;56848.84;5035227;28;20029;-85
2023/07/04 03:39:18;;;;;;;13.25;3.70;;;14.70;99.90;;;-144.05;63.83;56857.34;5035106;28;20032;-86
2023/07/04 03:41:44;;;;;;;12.70;3.72;;;14.80;99.90;;;-144.05;63.75;56846.72;5053435;28;20029;-85
2023/07/04 03:44:10;;;;;;;22.98;3.78;;;14.80;99.90;;;-144.05;63.29;56895.56;5055139;28;20017;-85
2023/07/04 03:46:36;;;;;;;15.43;3.17;;;14.80;99.90;;;-144.05;63.02;56846.72;5037756;28;20131;-86
2023/07/04 03:49:02;;;;;;;15.30;3.10;;;14.90;99.90;;;-144.05;63.52;56857.34;5054779;28;20028;-86
2023/07/04 03:51:28;;;;;;;14.95;3.13;;;14.80;99.90;;;-144.05;64.28;56844.59;5037619;28;20140;-84
2023/07/04 03:53:54;;;;;;;10.57;3.33;;;14.70;99.90;;;-144.05;64.61;56857.34;5055649;28;20377;-86
2023/07/04 03:56:20;;;;;;;16.05;3.92;;;14.70;99.90;;;-144.05;64.45;56859.47;5037228;28;20097;-88
2023/07/04 03:58:46;;;;;;;15.55;3.25;;;14.70;99.90;;;-144.05;65.10;56865.81;5053587;28;20052;-88
2023/07/04 04:01:12;;;;;;;13.43;3.67;;;14.60;99.90;;;-144.05;64.85;56867.94;5036697;28;20082;-85
2023/07/04 04:03:38;;;;;;;13.48;3.63;;;14.60;99.90;;;-144.05;65.07;56874.31;5036186;28;20428;-86
2023/07/04 04:06:09;;;;;;;17.48;3.35;;;14.60;99.90;;;-144.05;65.38;56840.34;5073557;28;20029;-85
2023/07/04 04:08:35;;;;;;;18.05;3.33;;;14.60;99.90;;;-144.05;65.31;56859.47;5041466;28;20370;-85
2023/07/04 04:11:03;;;;;;;19.70;4.07;;;14.60;99.90;;;-144.05;65.26;56855.22;5038031;28;20065;-85
2023/07/04 04:13:29;;;;;;;12.10;3.70;;;14.60;99.90;;;-144.05;65.68;56850.97;5038129;28;20029;-88
2023/07/04 04:15:55;;;;;;;13.48;3.55;;;14.60;99.90;;;-144.05;65.46;56870.06;5039438;28;20036;-86
2023/07/04 04:18:21;;;;;;;11.77;3.40;;;14.60;99.90;;;-144.05;65.31;56876.44;5039664;28;20052;-85
2023/07/04 04:20:48;;;;;;;18.52;3.88;;;14.60;99.90;;;-144.05;66.04;56848.84;5040223;28;20535;-88
2023/07/04 04:23:15;;;;;;;19.50;4.13;;;14.60;99.90;;;-144.05;65.99;56857.34;5042119;28;20029;-86
2023/07/04 04:25:40;;;;;;;14.65;3.67;;;14.70;99.90;;;-144.05;66.11;56882.81;5055935;28;20583;-85
2023/07/04 04:28:08;;;;;;;18.48;4.03;;;14.70;99.90;;;-144.05;66.58;56840.34;5056707;28;20087;-84
2023/07/04 04:30:34;;;;;;;12.90;3.88;;;14.70;99.90;;;-144.05;66.46;56842.47;5074509;28;20036;-82
2023/07/04 04:33:02;;;;;;;14.65;3.38;;;14.70;99.90;;;-144.05;66.68;56870.06;5055659;28;20105;-85
2023/07/04 04:35:31;;;;;;;23.42;4.07;;;14.70;99.90;;;-144.05;67.29;56874.31;5047278;28;20037;-84
2023/07/04 04:37:58;;;;;;;19.98;4.00;;;14.70;99.90;;;-144.05;67.29;56838.22;5054480;28;20029;-84
2023/07/04 04:40:25;;;;;;;13.90;3.63;;;14.60;99.90;;;-144.05;66.81;56870.06;5036005;28;20029;-83
2023/07/04 04:42:55;;;;;;;19.10;4.75;;;14.60;99.90;;;-144.05;67.15;56859.47;5036287;28;20059;-85
2023/07/04 04:45:23;;;;;;;17.35;3.58;;;14.70;99.90;;;-144.05;68.41;56855.22;5036308;28;20503;-87
2023/07/04 04:47:52;;;;;;;18.02;3.88;;;14.70;99.90;;;-144.05;68.38;56865.81;5052375;28;20040;-87
2023/07/04 04:50:32;;;;;;;17.88;3.80;;;14.80;99.90;;;-144.05;66.98;56857.34;5035201;28;20037;-84
2023/07/04 04:52:59;;;;;;;16.23;2.90;;;14.90;99.90;;;-144.05;66.58;56844.59;5053931;28;20053;-89
2023/07/04 04:55:27;;;;;;;14.65;4.03;;;15.00;99.90;;;-144.05;66.26;56842.47;5035678;28;20453;-87
2023/07/04 04:57:53;;;;;;;14.35;4.18;;;15.00;99.90;;;-144.05;66.67;56859.47;5035993;28;20550;-85
2023/07/04 05:00:20;;;;;;;17.42;4.03;;;15.00;99.90;;;-144.05;66.31;56863.69;5036415;28;20037;-84
2023/07/04 05:02:46;;;;;;;16.45;3.80;;;15.00;99.90;;;-144.05;65.87;56861.56;5035820;28;20032;-87
2023/07/04 05:05:13;;;;;;;14.95;3.88;;;15.10;99.90;;;-144.05;65.74;56855.22;5035715;28;20021;-87
2023/07/04 05:07:39;;;;;;;14.00;3.80;;;15.10;99.90;;;-144.05;65.56;56859.47;5035645;28;20036;-85
2023/07/04 05:10:06;;;;;;;14.80;3.58;;;15.00;99.90;;;-144.05;65.53;56867.94;5053887;28;20397;-83
2023/07/04 05:12:32;;;;;;;17.20;3.95;;;15.10;99.90;;;-144.05;65.24;56840.34;5036615;28;20062;-89
2023/07/04 05:14:58;;;;;;;15.70;4.05;;;15.20;99.90;;;-144.05;64.75;56859.47;5036634;28;20441;-84
2023/07/04 05:17:25;;;;;;;16.00;3.33;;;15.30;99.90;;;-144.05;64.30;56857.34;5035530;28;20040;-86
2023/07/04 05:19:51;;;;;;;15.35;3.65;;;15.40;99.90;;;-144.05;62.96;56855.22;5035608;28;20028;-88
2023/07/04 05:22:19;;;;;;;15.82;3.50;;;15.60;99.90;;;-144.05;62.64;56855.22;5036077;28;20025;-88
2023/07/04 05:24:46;;;;;;;13.27;3.28;;;15.70;99.90;;;-144.05;61.82;56865.81;5036057;28;20029;-84
2023/07/04 05:27:13;;;;;;;14.68;4.25;;;15.90;99.90;;;-144.05;61.52;56859.47;5053269;28;20053;-84
2023/07/04 05:29:39;;;;;;;10.82;3.58;;;15.90;99.90;;;-144.05;61.03;56861.56;5034970;28;20060;-85
2023/07/04 05:32:05;;;;;;;10.52;3.03;;;16.00;99.90;;;-144.05;61.30;56874.31;5035800;28;20036;-86
2023/07/04 05:34:31;;;;;;;19.80;3.80;;;15.90;99.90;;;-144.05;61.29;56882.81;5053365;28;20029;-85
2023/07/04 05:36:57;;;;;;;13.68;3.40;;;16.10;99.90;;;-144.05;60.89;56872.19;5035847;28;20051;-85
2023/07/04 05:39:23;;;;;;;13.85;4.40;;;16.20;99.90;;;-144.05;59.87;56857.34;5036019;28;20021;-87
2023/07/04 05:41:49;;;;;;;13.65;3.80;;;16.30;99.90;;;-144.05;60.57;56859.47;5035974;28;20033;-88
2023/07/04 05:44:14;;;;;;;15.13;3.55;;;16.20;99.90;;;-144.05;60.45;56891.31;5035958;28;20047;-86
2023/07/04 05:46:40;;;;;;;12.80;3.35;;;16.20;99.90;;;-144.05;59.96;56859.47;5036242;28;20543;-85
2023/07/04 05:49:07;;;;;;;12.98;3.28;;;16.40;99.90;;;-144.05;58.96;56865.81;5036201;28;20029;-84
2023/07/04 05:51:33;;;;;;;12.45;3.85;;;16.60;99.90;;;-144.05;58.80;56861.56;5037328;28;20025;-86
2023/07/04 05:53:59;;;;;;;15.43;3.05;;;16.60;99.90;;;-144.05;58.52;56872.19;5055523;28;20102;-85
2023/07/04 05:56:30;;;;;;;12.88;3.70;;;16.70;99.90;;;-144.05;59.16;56872.19;5037324;28;20032;-88
2023/07/04 05:59:01;;;;;;;14.73;3.92;;;16.70;99.90;;;-144.05;58.68;56857.34;5039490;28;20145;-77
2023/07/04 06:01:33;;;;;;;15.05;3.80;;;17.00;99.90;;;-144.05;57.78;56857.34;5075082;28;20045;-84
2023/07/04 06:04:02;;;;;;;12.32;3.22;;;17.10;99.90;;;-144.05;55.89;56867.94;5054380;28;20021;-86
2023/07/04 06:06:43;;;;;;;14.13;3.83;;;17.20;99.90;;;-144.05;57.80;56863.69;5037558;28;20056;-85
2023/07/04 06:09:15;;;;;;;9.77;3.83;;;17.00;99.90;;;-144.05;58.25;56846.72;5039595;28;20029;-84
2023/07/04 06:11:45;;;;;;;10.88;3.67;;;16.90;99.90;;;-144.05;57.49;56859.47;5038838;28;20028;-84
2023/07/04 06:14:17;;;;;;;16.50;4.00;;;17.10;99.90;;;-144.05;57.42;56863.69;5057009;28;20025;-86
2023/07/04 06:16:44;;;;;;;17.45;4.22;;;17.10;99.90;;;-144.05;57.65;56853.09;5038983;28;20029;-85
2023/07/04 06:19:10;;;;;;;16.77;3.83;;;17.00;99.90;;;-144.05;58.16;56867.94;5038725;28;20029;-86
2023/07/04 06:21:36;;;;;;;18.58;4.03;;;17.00;99.90;;;-144.05;58.23;56870.06;5042124;28;20424;-83
2023/07/04 06:24:02;;;;;;;15.18;4.43;;;16.80;99.90;;;-144.05;58.38;56867.94;5048745;28;20086;-84
2023/07/04 06:26:32;;;;;;;18.25;4.15;;;16.80;99.90;;;-144.05;58.60;56884.94;5041287;28;20032;-88
2023/07/04 06:28:59;;;;;;;11.57;3.88;;;16.80;99.90;;;-144.05;57.38;56867.94;5043606;28;20021;-82
2023/07/04 06:31:26;;;;;;;14.20;4.28;;;17.20;99.90;;;-144.05;56.21;56874.31;5048078;28;20021;-80
2023/07/04 06:33:55;;;;;;;15.02;4.38;;;17.40;99.90;;;-144.05;55.91;56882.81;5049494;28;20029;-86
2023/07/04 06:36:21;;;;;;;14.63;5.25;;;17.30;99.90;;;-144.05;56.33;56878.56;5038757;28;20025;-86
2023/07/04 06:38:47;;;;;;;18.33;5.50;;;17.10;99.90;;;-144.05;57.36;56874.31;5038354;28;20388;-86
2023/07/04 06:41:16;;;;;;;15.68;4.90;;;17.00;99.90;;;-144.05;56.76;56846.72;5056291;28;20025;-87
2023/07/04 06:43:46;;;;;;;15.45;4.60;;;17.20;99.90;;;-144.05;55.44;56891.31;5038216;28;20025;-84
2023/07/04 06:46:18;;;;;;;13.95;4.80;;;17.50;99.90;;;-144.05;54.86;56844.59;5038784;28;20025;-85
2023/07/04 06:48:50;;;;;;;14.70;4.88;;;17.60;99.90;;;-144.05;53.24;56887.06;5038958;28;20477;-86
2023/07/04 06:51:20;;;;;;;24.10;5.80;;;17.70;99.90;;;-144.05;53.50;56876.44;5038923;28;20025;-83
2023/07/04 06:53:47;;;;;;;18.48;5.10;;;17.90;99.90;;;-144.05;53.68;56872.19;5056402;28;20477;-86
2023/07/04 06:56:23;;;;;;;12.45;4.97;;;17.60;99.90;;;-144.05;55.77;56861.56;5038789;28;20032;-87
2023/07/04 06:58:55;;;;;;;15.73;4.70;;;17.50;99.90;;;-144.05;53.79;56882.81;5056914;28;20037;-85
2023/07/04 07:01:27;;;;;;;18.70;4.72;;;17.90;99.90;;;-144.05;52.79;56865.81;5056485;28;20029;-85
2023/07/04 07:03:55;;;;;;;17.95;4.97;;;17.80;99.90;;;-144.05;53.61;56893.44;5056068;28;20021;-88
2023/07/04 07:06:21;;;;;;;14.55;4.75;;;17.60;99.90;;;-144.05;53.73;56870.06;5055735;28;20389;-86
2023/07/04 07:08:47;;;;;;;10.50;4.00;;;17.50;99.90;;;-144.05;53.16;56855.22;5038618;28;20029;-85
2023/07/04 07:11:19;;;;;;;15.50;4.50;;;17.60;99.90;;;-144.05;52.46;56853.09;5038206;28;20032;-88
2023/07/04 07:13:48;;;;;;;13.63;3.72;;;18.10;99.90;;;-144.05;50.15;56874.31;5039281;28;20469;-88
2023/07/04 07:16:24;;;;;;;18.60;4.07;;;18.90;99.90;;;-144.05;47.71;56882.81;5038423;28;20033;-86
2023/07/04 07:18:53;;;;;;;;;;;19.30;99.90;;;-144.05;46.95;56865.81;5056955;28;20040;-87
2023/07/04 07:21:25;;;;;;;18.65;3.90;;;18.90;99.90;;;-144.05;48.60;56878.56;5038305;28;20319;-86
2023/07/04 07:23:53;;;;;;;10.98;3.38;;;19.00;99.90;;;-144.05;48.39;56867.94;5038716;28;20029;-86
2023/07/04 07:26:22;;;;;;;13.40;3.58;;;19.00;99.90;;;-144.05;47.71;56884.94;5038362;28;20048;-85
2023/07/04 07:28:49;;;;;;;14.85;3.47;;;19.30;99.90;;;-144.05;47.19;56865.81;5037443;28;20055;-86
2023/07/04 07:31:26;;;;;;;10.23;3.38;;;19.80;99.90;;;-144.05;46.43;56933.78;5039482;28;20029;-85
2023/07/04 07:33:52;;;;;;;14.35;3.90;;;20.10;99.90;;;-144.05;45.47;56857.34;5039510;28;20052;-85
2023/07/04 07:36:30;;;;;;;17.17;3.72;;;19.80;99.90;;;-144.05;45.52;56889.19;5038809;28;20036;-86
2023/07/04 07:38:57;;;;;;;12.20;3.20;;;20.10;99.90;;;-144.05;45.24;56872.19;5039582;28;20174;-88
2023/07/04 07:41:34;;;;;;;12.02;3.00;;;20.40;99.90;;;-144.05;45.33;56887.06;5039359;28;20033;-87
2023/07/04 07:44:00;;;;;;;11.93;3.55;;;20.30;99.90;;;-144.05;44.61;56884.94;5056837;28;20029;-83
2023/07/04 07:46:26;;;;;;;11.40;4.25;;;20.40;99.90;;;-144.05;44.04;56904.06;5057415;28;20029;-86
2023/07/04 07:48:52;;;;;;;9.50;2.95;;;20.00;99.90;;;-144.05;44.36;56893.44;5057227;28;20469;-84
2023/07/04 07:51:19;;;;;;;10.88;3.10;;;19.60;99.90;;;-144.05;46.40;56878.56;5066833;28;20021;-78
2023/07/04 07:53:49;;;;;;;10.95;3.28;;;19.40;99.90;;;-144.05;45.73;56861.56;5053567;28;20053;-88
2023/07/04 07:56:19;;;;;;;11.88;3.28;;;19.50;99.90;;;-144.05;45.44;56880.69;5038344;28;20025;-86
2023/07/04 07:58:46;;;;;;;12.52;3.22;;;19.70;99.90;;;-144.05;43.97;56882.81;5037586;28;20036;-84
2023/07/04 08:01:29;;;;;;;16.23;2.80;;;20.60;99.90;;;-144.05;45.27;56880.69;5037906;28;20029;-84
2023/07/04 08:03:57;;;;;;;11.30;3.63;;;20.30;99.90;;;-144.05;43.91;56908.31;5038157;28;20029;-85
2023/07/04 08:06:55;;;;;;;12.57;3.40;;;20.30;99.90;;;-144.05;43.81;56904.06;5038202;28;20052;-82
2023/07/04 08:09:21;;;;;;;8.32;3.15;;;20.00;99.90;;;-144.05;42.82;56893.44;5005357;28;20090;-84
2023/07/04 08:11:48;;;;;;;10.13;3.00;;;20.00;99.90;;;-144.05;41.23;56921.06;5037781;28;20021;-84
2023/07/04 08:14:17;;;;;;;11.13;3.08;;;20.60;99.90;;;-144.05;41.52;56912.56;5037957;28;20094;-85
2023/07/04 08:16:50;;;;;;;14.13;3.00;;;20.70;99.90;;;-144.05;41.29;56904.06;5038841;28;20029;-82
2023/07/04 08:19:21;;;;;;;9.70;3.20;;;20.90;99.90;;;-144.05;40.69;56906.19;5039369;28;20064;-85
2023/07/04 08:21:47;;;;;;;11.23;3.10;;;21.00;99.90;;;-144.05;41.12;56897.69;5038146;28;20423;-83
2023/07/04 08:24:16;;;;;;;8.48;2.42;;;20.70;99.90;;;-144.05;41.64;56910.44;5038167;28;20078;-84
2023/07/04 08:26:45;;;;;;;14.52;2.97;;;20.70;99.90;;;-144.05;41.45;56904.06;5038213;28;20029;-84
2023/07/04 08:29:13;;;;;;;8.10;2.42;;;20.60;99.90;;;-144.05;41.98;56908.31;5037380;28;20033;-84
2023/07/04 08:31:39;;;;;;;11.70;3.47;;;21.00;99.90;;;-144.05;39.98;56912.56;5038147;28;20481;-84
2023/07/04 08:34:05;;;;;;;9.55;2.95;;;21.20;99.90;;;-144.05;39.60;56914.69;5038035;28;20040;-85
2023/07/04 08:36:33;;;;;;;6.90;2.83;;;21.20;99.90;;;-144.05;40.24;56904.06;5038230;28;20051;-83
2023/07/04 08:39:00;;;;;;;4.47;2.28;;;20.80;99.90;;;-144.05;41.38;56891.31;5037777;28;20044;-84
2023/07/04 08:42:02;;;;;;;8.65;2.50;;;20.10;99.90;;;-144.05;40.62;56887.06;5038080;28;20033;-85
2023/07/04 08:44:46;;;;;;;9.90;2.30;;;20.30;99.90;;;-144.05;39.99;56884.94;5037791;28;20514;-84
2023/07/04 08:47:18;;;;;;;8.70;2.42;;;20.60;99.90;;;-144.05;39.89;56921.06;5037340;28;20078;-85
2023/07/04 08:50:23;;;;;;;7.22;2.53;;;21.00;99.90;;;-144.05;38.92;56916.81;5037778;28;20035;-85
2023/07/04 08:53:05;;;;;;;7.15;2.22;;;21.40;99.90;;;-144.05;37.57;56925.28;5038197;28;20052;-83
2023/07/04 08:55:47;;;;;;;8.35;2.55;;;22.00;99.90;;;-144.05;36.40;56931.66;5036813;28;20033;-83
2023/07/04 08:58:19;;;;;;;9.23;2.35;;;21.80;99.90;;;-144.05;37.54;56887.06;5037194;28;20032;-83
2023/07/04 09:00:45;;;;;;;7.63;2.33;;;21.70;99.90;;;-144.05;36.38;56908.31;5037890;28;20060;-84
2023/07/04 09:03:30;;;;;;;9.60;2.00;;;21.90;99.90;;;-144.05;35.78;56925.28;5037144;28;20035;-85
2023/07/04 09:06:36;;;;;;;7.88;2.10;;;22.00;99.90;;;-144.05;36.19;56931.66;5037755;28;20021;-85
2023/07/04 09:10:11;;;;;;;6.03;1.95;;;22.00;99.90;;;-144.05;36.28;56916.81;5037288;28;20029;-85
2023/07/04 09:12:41;;;;;;;8.95;2.35;;;21.80;99.00;;;-144.05;37.92;56901.94;4993300;28;20396;-84
2023/07/04 09:15:25;;;;;;;10.02;2.50;;;21.30;99.90;;;-144.05;37.15;56897.69;5037389;28;20036;-85
2023/07/04 09:18:09;;;;;;;9.70;2.60;;;21.60;99.90;;;-144.05;35.52;56895.56;5037165;28;20029;-85
2023/07/04 09:21:16;;;;;;;8.07;2.20;;;21.80;98.60;;;-144.05;36.08;56933.78;5038166;28;20111;-84
2023/07/04 09:23:47;;;;;;;7.43;2.38;;;22.50;99.90;;;-144.05;34.71;56921.06;5037381;28;20029;-84
2023/07/04 09:26:24;;;;;;;9.05;2.33;;;22.40;96.80;;;-144.05;35.70;56944.41;5036267;28;20072;-85
2023/07/04 09:28:57;;;;;;;5.55;2.30;;;21.80;98.30;;;-144.05;36.11;56908.31;5036884;28;20542;-85
2023/07/04 09:31:30;;;;;;;8.80;2.25;;;21.50;98.60;;;-144.05;36.21;56929.53;5037604;28;20032;-86
2023/07/04 09:34:02;;;;;;;6.50;2.25;;;22.20;99.30;;;-144.05;35.16;56927.41;5037784;28;20086;-85
2023/07/04 09:36:38;;;;;;;6.47;2.20;;;22.20;97.20;;;-144.05;34.06;56914.69;5039189;28;20056;-86
2023/07/04 09:39:04;;;;;;;7.15;2.30;;;22.50;95.70;;;-144.05;34.20;56935.91;5039534;28;20036;-86
2023/07/04 09:41:39;;;;;;;7.63;1.92;;;23.10;96.20;;;-144.05;33.70;56925.28;5050910;28;20025;-82
2023/07/04 09:44:19;;;;;;;8.70;2.20;;;23.30;95.00;;;-144.05;32.81;56938.03;5075000;28;20379;-84
2023/07/04 09:46:54;;;;;;;9.48;2.33;;;23.30;93.60;;;-144.05;34.10;56938.03;5041518;28;20072;-84
2023/07/04 09:49:35;;;;;;;9.20;2.17;;;23.10;94.00;;;-144.05;33.51;56976.28;5041624;28;20079;-84
2023/07/04 09:52:11;;;;;;;8.25;2.20;;;23.40;94.20;;;-144.05;33.45;56938.03;5042194;28;20040;-83
2023/07/04 09:54:41;;;;;;;5.03;1.85;;;23.50;94.20;;;-144.05;33.08;56938.03;5040164;28;20079;-86
2023/07/04 09:57:30;;;;;;;6.57;2.25;;;23.30;92.00;;;-144.05;33.21;56980.53;5040378;28;20463;-84
2023/07/04 10:00:25;;;;;;;8.25;2.13;;;23.40;93.70;;;-144.05;33.03;56974.16;5039496;28;20025;-84
2023/07/04 10:03:03;;;;;;;8.27;2.40;;;23.50;93.60;;;-144.05;33.25;56942.28;5039523;28;20504;-84
2023/07/04 10:05:35;;;;;;;6.35;2.20;;;23.00;93.00;;;-144.05;34.02;56942.28;5039214;28;20078;-86
2023/07/04 10:08:15;;;;;;;10.57;2.10;;;23.00;93.60;;;-144.05;33.87;56914.69;5039524;28;20498;-83
2023/07/04 10:10:55;;;;;;;23.38;4.43;;;22.40;92.20;;;-144.05;34.58;56929.53;5040707;28;20033;-84
2023/07/04 10:13:37;;;;;;;8.13;2.40;;;22.70;93.60;;;-144.05;33.98;56946.53;5041637;28;20025;-82
2023/07/04 10:16:23;;;;;;;7.50;2.30;;;23.40;95.10;;;-144.05;33.67;56916.81;5042163;28;20036;-84
2023/07/04 10:18:49;;;;;;;9.57;2.60;;;23.30;92.70;;;-144.05;33.02;56959.28;5042069;28;20028;-84